Tenerife Car — CQCP — position and weather

sailwx.info

Track history (hours):
 
Tides and Currents Weather Stations Pressure Air Temp Water Temp Dewpoint Dewpoint Depression Visibility Wind Speed Wind Dir Waves Ship Positions

Tenerife Car

Last reported at 2018-Jul-20 05:14 UTC. Time now 2018-Jul-20 12:28 UTC.
Position N 33°38' W 007°34'.

Length 138 m; draft 6 m.

Type: Cargo ship. MMSI: 255805766.

Date/timePositionNaut miles runAvg speedWind from/ knotsBaromVisibWave heightAir tempDewpointWater temp
2018-Jul-20 05:14N 33°38' W 007°34'1 4.8
2018-Jul-20 05:01N 33°39' W 007°34'4 4.6
2018-Jul-20 04:14N 33°43' W 007°34'2 9.0
2018-Jul-20 03:59N 33°45' W 007°34'154 9.7
2018-Jul-19 12:04N 35°55' W 005°54'111.6
2018-Jul-19 12:00N 35°56' W 005°53'611.3
2018-Jul-19 11:28N 35°57' W 005°45'4 0.5
2018-Jul-19 04:45N 35°53' W 005°47'414.5
2018-Jul-19 04:30N 35°53' W 005°51'1416.0
2018-Jul-19 03:39N 35°53' W 006°08'215.9
2018-Jul-19 03:30N 35°53' W 006°11'815.8
2018-Jul-19 03:00N 35°53' W 006°21'4215.7
2018-Jul-19 00:19N 36°03' W 007°11'2115.9
2018-Jul-18 23:01N 36°10' W 007°36'815.8
2018-Jul-18 22:30N 36°12' W 007°45'815.9
2018-Jul-18 22:00N 36°14' W 007°55'915.9
2018-Jul-18 21:25N 36°17' W 008°06'715.9
2018-Jul-18 21:00N 36°19' W 008°14'915.8
2018-Jul-18 20:26N 36°21' W 008°25'715.9
2018-Jul-18 20:00N 36°23' W 008°33'815.8
2018-Jul-18 19:30N 36°25' W 008°42'815.6
2018-Jul-18 19:00N 36°27' W 008°52'815.6
2018-Jul-18 18:31N 36°29' W 009°01'1015.8
2018-Jul-18 17:51N 36°32' W 009°13'515.7
2018-Jul-18 17:31N 36°35' W 009°19'2515.3
2018-Jul-18 15:51N 36°57' W 009°35'3815.7
2018-Jul-18 13:27N 37°33' W 009°46'715.8
2018-Jul-18 13:01N 37°40' W 009°48'916.2
2018-Jul-18 12:28N 37°49' W 009°51'816.0
2018-Jul-18 11:59N 37°56' W 009°54'916.1
2018-Jul-18 11:25N 38°05' W 009°57'1415.7
2018-Jul-18 10:30N 38°19' W 010°01'815.8
2018-Jul-18 10:00N 38°27' W 010°03'815.3
2018-Jul-18 09:30N 38°34' W 010°04'815.6
2018-Jul-18 09:00N 38°42' W 010°06'815.4
2018-Jul-18 08:30N 38°50' W 010°06'815.6
2018-Jul-18 08:00N 38°57' W 010°06'815.6
2018-Jul-18 07:30N 39°05' W 010°05'815.7
2018-Jul-18 07:00N 39°13' W 010°02'815.6
2018-Jul-18 06:30N 39°20' W 009°60'18115.0
2018-Jul-17 18:27N 42°13' W 008°49'3 0.2
2018-Jul-16 22:03N 42°14' W 008°45'1 2.7
2018-Jul-16 21:49N 42°14' W 008°46'2 5.7
2018-Jul-16 21:30N 42°14' W 008°48'714.0
2018-Jul-16 21:00N 42°17' W 008°56'299 9.1
2018-Jul-15 12:19N 47°07' W 007°14'310.1
2018-Jul-15 12:00N 47°10' W 007°11'510.2
2018-Jul-15 11:29N 47°14' W 007°07'510.3
2018-Jul-15 11:00N 47°19' W 007°04'5111.3
2018-Jul-15 06:27N 48°04' W 006°27'21 9.2
2018-Jul-15 04:09N 48°23' W 006°13'1 8.5
2018-Jul-15 04:00N 48°24' W 006°12'4 8.9
2018-Jul-15 03:30N 48°28' W 006°09'4 9.0
2018-Jul-15 03:00N 48°32' W 006°06'5 9.1
2018-Jul-15 02:30N 48°36' W 006°03'5 9.6
2018-Jul-15 02:00N 48°40' W 005°60'510.1
2018-Jul-15 01:30N 48°45' W 005°56'510.7
2018-Jul-15 01:00N 48°49' W 005°53'611.1
2018-Jul-15 00:31N 48°54' W 005°48'815.4
2018-Jul-15 00:00N 48°57' W 005°37'917.9
2018-Jul-14 23:30N 49°02' W 005°26'917.8
2018-Jul-14 23:00N 49°07' W 005°14'917.7
2018-Jul-14 22:30N 49°12' W 005°03'816.5
2018-Jul-14 22:00N 49°16' W 004°52'611.2
2018-Jul-14 21:30N 49°19' W 004°44'510.7
2018-Jul-14 21:00N 49°21' W 004°37'610.0
2018-Jul-14 20:25N 49°24' W 004°29'27 8.8
2018-Jul-14 17:21N 49°38' W 003°53'3 9.1
2018-Jul-14 17:00N 49°39' W 003°49'5 9.5
2018-Jul-14 16:30N 49°41' W 003°42'610.5
2018-Jul-14 15:54N 49°44' W 003°34'611.3
2018-Jul-14 15:23N 49°47' W 003°26'512.0
2018-Jul-14 15:01N 49°50' W 003°20'612.5
2018-Jul-14 14:30N 49°53' W 003°12'1312.6
2018-Jul-14 13:30N 49°60' W 002°55'712.6
2018-Jul-14 12:59N 50°01' W 002°46'612.0
2018-Jul-14 12:28N 50°03' W 002°36'511.5
2018-Jul-14 12:00N 50°05' W 002°28'710.4
2018-Jul-14 11:22N 50°07' W 002°18'5 9.4
2018-Jul-14 10:52N 50°08' W 002°11'3 8.6
2018-Jul-14 10:30N 50°09' W 002°07'4 7.9
2018-Jul-14 10:00N 50°10' W 002°01'4 7.2
2018-Jul-14 09:30N 50°11' W 001°55'3 6.7
2018-Jul-14 09:00N 50°12' W 001°50'3 6.5
2018-Jul-14 08:30N 50°12' W 001°45'3 6.5
2018-Jul-14 08:00N 50°13' W 001°40'3 6.8
2018-Jul-14 07:30N 50°14' W 001°35'4 7.4
2018-Jul-14 07:00N 50°15' W 001°30'4 8.4
2018-Jul-14 06:30N 50°16' W 001°23'5 9.5
2018-Jul-14 06:00N 50°18' W 001°16'510.7
2018-Jul-14 05:30N 50°19' W 001°08'612.0
2018-Jul-14 05:00N 50°21' W 000°59'612.8
2018-Jul-14 04:30N 50°22' W 000°49'713.1
2018-Jul-14 04:00N 50°24' W 000°40'613.0
2018-Jul-14 03:30N 50°26' W 000°30'612.7
2018-Jul-14 03:00N 50°28' W 000°20'612.4
2018-Jul-14 02:30N 50°29' W 000°11'612.0
2018-Jul-14 02:00N 50°31' W 000°01'611.7
2018-Jul-14 01:30N 50°33' E 000°07'611.4
2018-Jul-14 01:00N 50°34' E 000°16'510.9
2018-Jul-14 00:30N 50°36' E 000°24'510.5
2018-Jul-14 00:00N 50°38' E 000°32'5 9.8
2018-Jul-13 23:30N 50°40' E 000°39'5 9.4
2018-Jul-13 23:00N 50°43' E 000°45'5 9.4
2018-Jul-13 22:30N 50°46' E 000°51'5 9.3
2018-Jul-13 22:00N 50°48' E 000°56'5 9.5
2018-Jul-13 21:30N 50°51' E 001°02'510.3
2018-Jul-13 21:01N 50°55' E 001°08'611.3
2018-Jul-13 20:30N 50°58' E 001°15'612.7
2018-Jul-13 20:00N 51°02' E 001°24'713.8
2018-Jul-13 19:30N 51°06' E 001°32'713.9
2018-Jul-13 19:00N 51°11' E 001°41'713.0
2018-Jul-13 18:31N 51°16' E 001°48'612.1
2018-Jul-13 18:00N 51°20' E 001°54'611.1
2018-Jul-13 17:30N 51°25' E 001°59'510.7
2018-Jul-13 17:00N 51°23' E 002°07'510.9
2018-Jul-13 16:31N 51°21' E 002°15'5 9.9
2018-Jul-13 16:00N 51°22' E 002°23'510.0
2018-Jul-13 15:30N 51°23' E 002°31'5 9.8
2018-Jul-13 14:59N 51°23' E 002°39'4 9.3
2018-Jul-13 14:30N 51°22' E 002°46'1514.7
2018-Jul-13 13:30N 51°22' E 003°09'3 5.2
2018-Jul-13 12:55N 51°20' E 003°13'0 0.7
2018-Jul-13 12:29N 51°20' E 003°13'1 0.9
2018-Jul-13 11:53N 51°19' E 003°13'0 0.0
2018-Jul-13 10:38N 51°19' E 003°13'0 0.0
2018-Jul-13 10:29N 51°19' E 003°13'0 0.0
2018-Jul-13 09:35N 51°19' E 003°13'0 0.0
2018-Jul-13 09:05N 51°19' E 003°13'0 0.0
2018-Jul-13 07:17N 51°19' E 003°13'0 0.0
2018-Jul-13 06:49N 51°19' E 003°13'0 0.0
2018-Jul-13 06:19N 51°19' E 003°13'0 0.0
2018-Jul-13 05:40N 51°19' E 003°13'0 0.0
2018-Jul-13 05:10N 51°19' E 003°13'0 0.0
2018-Jul-13 04:52N 51°19' E 003°13'0 0.0
2018-Jul-13 04:28N 51°19' E 003°13'0 0.0
2018-Jul-13 03:55N 51°19' E 003°13'0 0.1
2018-Jul-13 03:13N 51°19' E 003°13'0 0.3
2018-Jul-13 02:58N 51°19' E 003°13'0 0.0
2018-Jul-13 02:28N 51°19' E 003°13'0 0.0
2018-Jul-13 01:58N 51°19' E 003°13'0 0.0
2018-Jul-13 01:22N 51°19' E 003°13'0 0.0
2018-Jul-13 00:58N 51°19' E 003°13'0 0.0
2018-Jul-12 23:46N 51°19' E 003°13'0 0.0
2018-Jul-12 23:28N 51°19' E 003°13'0 0.0
2018-Jul-12 22:58N 51°19' E 003°13'0 0.0
2018-Jul-12 22:25N 51°19' E 003°13'0 0.0
2018-Jul-12 21:57N 51°19' E 003°13'0 1.0
2018-Jul-12 21:30N 51°19' E 003°13'1 1.7
2018-Jul-12 21:00N 51°18' E 003°14'0 0.0
2018-Jul-12 20:30N 51°18' E 003°14'0 0.0
2018-Jul-12 20:00N 51°18' E 003°14'0 0.0
2018-Jul-12 19:30N 51°18' E 003°14'0 0.0
2018-Jul-12 18:59N 51°18' E 003°14'0 0.0
2018-Jul-12 18:30N 51°18' E 003°14'0 0.0
2018-Jul-12 18:00N 51°18' E 003°14'0 0.0
2018-Jul-12 17:30N 51°18' E 003°14'0 0.0
2018-Jul-12 17:00N 51°18' E 003°14'0 0.0
2018-Jul-12 16:29N 51°18' E 003°14'0 0.0
2018-Jul-12 16:00N 51°18' E 003°14'0 0.0
2018-Jul-12 15:30N 51°18' E 003°14'0 0.0
2018-Jul-12 15:00N 51°18' E 003°14'0 0.0
2018-Jul-12 14:30N 51°18' E 003°14'0 0.0
2018-Jul-12 14:00N 51°18' E 003°14'0 0.0
2018-Jul-12 13:30N 51°18' E 003°14'0 0.0
2018-Jul-12 13:00N 51°18' E 003°14'0 0.0
2018-Jul-12 12:30N 51°18' E 003°14'0 0.0
2018-Jul-12 12:00N 51°18' E 003°14'0 0.0
2018-Jul-12 11:30N 51°18' E 003°14'0 0.0
2018-Jul-12 11:00N 51°18' E 003°14'0 0.0
2018-Jul-12 10:30N 51°18' E 003°14'0 0.0
2018-Jul-12 10:00N 51°18' E 003°14'0 0.0
2018-Jul-12 09:29N 51°18' E 003°14'0 0.0
2018-Jul-12 09:00N 51°18' E 003°14'0 0.0
2018-Jul-12 08:30N 51°18' E 003°14'2 3.4
2018-Jul-12 08:00N 51°20' E 003°13'0 0.0
2018-Jul-12 07:30N 51°20' E 003°13'1 1.2
2018-Jul-12 07:00N 51°21' E 003°13'510.5
2018-Jul-12 06:30N 51°24' E 003°06'714.4
2018-Jul-12 06:00N 51°22' E 002°55'714.1
2018-Jul-12 05:31N 51°22' E 002°44'3 6.9
2018-Jul-12 05:00N 51°22' E 002°38'3 5.4
2018-Jul-12 04:30N 51°22' E 002°34'3 5.5
2018-Jul-12 04:00N 51°22' E 002°29'3 5.7
2018-Jul-12 03:30N 51°21' E 002°25'3 5.9
2018-Jul-12 03:00N 51°20' E 002°21'713.9
2018-Jul-12 02:30N 51°16' E 002°11'816.7
2018-Jul-12 02:00N 51°12' E 001°60'817.0
2018-Jul-12 01:30N 51°07' E 001°48'917.3
2018-Jul-12 01:00N 51°01' E 001°39'917.7
2018-Jul-12 00:30N 50°54' E 001°30'917.9
2018-Jul-12 00:00N 50°46' E 001°24'917.2
2018-Jul-11 23:30N 50°38' E 001°18'917.1
2018-Jul-11 23:00N 50°33' E 001°08'816.8
2018-Jul-11 22:30N 50°30' E 000°55'917.0
2018-Jul-11 22:00N 50°28' E 000°42'1017.0
2018-Jul-11 21:26N 50°25' E 000°28'4618.3
2018-Jul-11 18:54N 50°12' W 000°42'3619.6
2018-Jul-11 17:03N 50°03' W 001°37'319.3
2018-Jul-11 16:53N 50°03' W 001°42'819.1
2018-Jul-11 16:27N 50°01' W 001°54'1018.5
2018-Jul-11 15:56N 49°58' W 002°09'817.8
2018-Jul-11 15:29N 49°56' W 002°21'817.4
2018-Jul-11 15:00N 49°54' W 002°33'816.9
2018-Jul-11 14:30N 49°51' W 002°46'816.2
2018-Jul-11 14:00N 49°48' W 002°57'816.1
2018-Jul-11 13:30N 49°43' W 003°07'815.9
2018-Jul-11 13:00N 49°39' W 003°18'916.3
2018-Jul-11 12:26N 49°35' W 003°31'716.4
2018-Jul-11 12:00N 49°31' W 003°40'816.5
2018-Jul-11 11:30N 49°27' W 003°51'816.3
2018-Jul-11 10:59N 49°22' W 004°02'816.2
2018-Jul-11 10:30N 49°19' W 004°13'815.9
2018-Jul-11 10:00N 49°15' W 004°23'815.7
2018-Jul-11 09:30N 49°11' W 004°34'3815.5
2018-Jul-11 07:04N 48°52' W 005°23'115.5
2018-Jul-11 07:00N 48°51' W 005°24'815.5
2018-Jul-11 06:30N 48°47' W 005°35'1315.3
2018-Jul-11 05:39N 48°36' W 005°45'315.9
2018-Jul-11 05:29N 48°34' W 005°43'816.1
2018-Jul-11 05:00N 48°28' W 005°36'815.6
2018-Jul-11 04:30N 48°21' W 005°30'815.9
2018-Jul-11 03:59N 48°14' W 005°23'1016.4
2018-Jul-11 03:23N 48°06' W 005°15'1615.9
2018-Jul-11 02:21N 47°52' W 005°01'816.7
2018-Jul-11 01:52N 47°48' W 004°52'4016.9
2018-Jul-10 23:30N 47°29' W 003°59'917.1
2018-Jul-10 22:58N 47°23' W 003°49'816.4
2018-Jul-10 22:30N 47°20' W 003°39'917.1
2018-Jul-10 21:59N 47°16' W 003°27'916.7
2018-Jul-10 21:26N 47°11' W 003°15'1016.3
2018-Jul-10 20:50N 47°08' W 003°02'616.6
2018-Jul-10 20:30N 47°07' W 002°53'816.6
2018-Jul-10 20:00N 47°08' W 002°42'916.7
2018-Jul-10 19:30N 47°08' W 002°29'613.0
2018-Jul-10 19:00N 47°09' W 002°20'11 1.0
2018-Jul-10 08:49N 47°17' W 002°10'0 0.0
2018-Jul-10 06:58N 47°17' W 002°10'0 0.0
2018-Jul-10 06:25N 47°17' W 002°10'0 0.0
2018-Jul-10 05:49N 47°17' W 002°10'0 0.0
2018-Jul-10 05:28N 47°17' W 002°10'  
Track history (hours):
 
Tides and Currents Weather Stations Pressure Air Temp Water Temp Dewpoint Dewpoint Depression Visibility Wind Speed Wind Dir Waves Ship Positions

Tenerife Car

Last reported at 2018-Jul-20 05:14 UTC. Time now 2018-Jul-20 12:28 UTC.
Position N 33°38' W 007°34'.

Length 138 m; draft 6 m.

Type: Cargo ship. MMSI: 255805766.

Date/timePositionNaut miles runAvg speedWind from/ knotsBaromVisibWave heightAir tempDewpointWater temp
2018-Jul-20 05:14N 33°38' W 007°34'1 4.8
2018-Jul-20 05:01N 33°39' W 007°34'4 4.6
2018-Jul-20 04:14N 33°43' W 007°34'2 9.0
2018-Jul-20 03:59N 33°45' W 007°34'154 9.7
2018-Jul-19 12:04N 35°55' W 005°54'111.6
2018-Jul-19 12:00N 35°56' W 005°53'611.3
2018-Jul-19 11:28N 35°57' W 005°45'4 0.5
2018-Jul-19 04:45N 35°53' W 005°47'414.5
2018-Jul-19 04:30N 35°53' W 005°51'1416.0
2018-Jul-19 03:39N 35°53' W 006°08'215.9
2018-Jul-19 03:30N 35°53' W 006°11'815.8
2018-Jul-19 03:00N 35°53' W 006°21'4215.7
2018-Jul-19 00:19N 36°03' W 007°11'2115.9
2018-Jul-18 23:01N 36°10' W 007°36'815.8
2018-Jul-18 22:30N 36°12' W 007°45'815.9
2018-Jul-18 22:00N 36°14' W 007°55'915.9
2018-Jul-18 21:25N 36°17' W 008°06'715.9
2018-Jul-18 21:00N 36°19' W 008°14'915.8
2018-Jul-18 20:26N 36°21' W 008°25'715.9
2018-Jul-18 20:00N 36°23' W 008°33'815.8
2018-Jul-18 19:30N 36°25' W 008°42'815.6
2018-Jul-18 19:00N 36°27' W 008°52'815.6
2018-Jul-18 18:31N 36°29' W 009°01'1015.8
2018-Jul-18 17:51N 36°32' W 009°13'515.7
2018-Jul-18 17:31N 36°35' W 009°19'2515.3
2018-Jul-18 15:51N 36°57' W 009°35'3815.7
2018-Jul-18 13:27N 37°33' W 009°46'715.8
2018-Jul-18 13:01N 37°40' W 009°48'916.2
2018-Jul-18 12:28N 37°49' W 009°51'816.0
2018-Jul-18 11:59N 37°56' W 009°54'916.1
2018-Jul-18 11:25N 38°05' W 009°57'1415.7
2018-Jul-18 10:30N 38°19' W 010°01'815.8
2018-Jul-18 10:00N 38°27' W 010°03'815.3
2018-Jul-18 09:30N 38°34' W 010°04'815.6
2018-Jul-18 09:00N 38°42' W 010°06'815.4
2018-Jul-18 08:30N 38°50' W 010°06'815.6
2018-Jul-18 08:00N 38°57' W 010°06'815.6
2018-Jul-18 07:30N 39°05' W 010°05'815.7
2018-Jul-18 07:00N 39°13' W 010°02'815.6
2018-Jul-18 06:30N 39°20' W 009°60'18115.0
2018-Jul-17 18:27N 42°13' W 008°49'3 0.2
2018-Jul-16 22:03N 42°14' W 008°45'1 2.7
2018-Jul-16 21:49N 42°14' W 008°46'2 5.7
2018-Jul-16 21:30N 42°14' W 008°48'714.0
2018-Jul-16 21:00N 42°17' W 008°56'299 9.1
2018-Jul-15 12:19N 47°07' W 007°14'310.1
2018-Jul-15 12:00N 47°10' W 007°11'510.2
2018-Jul-15 11:29N 47°14' W 007°07'510.3
2018-Jul-15 11:00N 47°19' W 007°04'5111.3
2018-Jul-15 06:27N 48°04' W 006°27'21 9.2
2018-Jul-15 04:09N 48°23' W 006°13'1 8.5
2018-Jul-15 04:00N 48°24' W 006°12'4 8.9
2018-Jul-15 03:30N 48°28' W 006°09'4 9.0
2018-Jul-15 03:00N 48°32' W 006°06'5 9.1
2018-Jul-15 02:30N 48°36' W 006°03'5 9.6
2018-Jul-15 02:00N 48°40' W 005°60'510.1
2018-Jul-15 01:30N 48°45' W 005°56'510.7
2018-Jul-15 01:00N 48°49' W 005°53'611.1
2018-Jul-15 00:31N 48°54' W 005°48'815.4
2018-Jul-15 00:00N 48°57' W 005°37'917.9
2018-Jul-14 23:30N 49°02' W 005°26'917.8
2018-Jul-14 23:00N 49°07' W 005°14'917.7
2018-Jul-14 22:30N 49°12' W 005°03'816.5
2018-Jul-14 22:00N 49°16' W 004°52'611.2
2018-Jul-14 21:30N 49°19' W 004°44'510.7
2018-Jul-14 21:00N 49°21' W 004°37'610.0
2018-Jul-14 20:25N 49°24' W 004°29'27 8.8
2018-Jul-14 17:21N 49°38' W 003°53'3 9.1
2018-Jul-14 17:00N 49°39' W 003°49'5 9.5
2018-Jul-14 16:30N 49°41' W 003°42'610.5
2018-Jul-14 15:54N 49°44' W 003°34'611.3
2018-Jul-14 15:23N 49°47' W 003°26'512.0
2018-Jul-14 15:01N 49°50' W 003°20'612.5
2018-Jul-14 14:30N 49°53' W 003°12'1312.6
2018-Jul-14 13:30N 49°60' W 002°55'712.6
2018-Jul-14 12:59N 50°01' W 002°46'612.0
2018-Jul-14 12:28N 50°03' W 002°36'511.5
2018-Jul-14 12:00N 50°05' W 002°28'710.4
2018-Jul-14 11:22N 50°07' W 002°18'5 9.4
2018-Jul-14 10:52N 50°08' W 002°11'3 8.6
2018-Jul-14 10:30N 50°09' W 002°07'4 7.9
2018-Jul-14 10:00N 50°10' W 002°01'4 7.2
2018-Jul-14 09:30N 50°11' W 001°55'3 6.7
2018-Jul-14 09:00N 50°12' W 001°50'3 6.5
2018-Jul-14 08:30N 50°12' W 001°45'3 6.5
2018-Jul-14 08:00N 50°13' W 001°40'3 6.8
2018-Jul-14 07:30N 50°14' W 001°35'4 7.4
2018-Jul-14 07:00N 50°15' W 001°30'4 8.4
2018-Jul-14 06:30N 50°16' W 001°23'5 9.5
2018-Jul-14 06:00N 50°18' W 001°16'510.7
2018-Jul-14 05:30N 50°19' W 001°08'612.0
2018-Jul-14 05:00N 50°21' W 000°59'612.8
2018-Jul-14 04:30N 50°22' W 000°49'713.1
2018-Jul-14 04:00N 50°24' W 000°40'613.0
2018-Jul-14 03:30N 50°26' W 000°30'612.7
2018-Jul-14 03:00N 50°28' W 000°20'612.4
2018-Jul-14 02:30N 50°29' W 000°11'612.0
2018-Jul-14 02:00N 50°31' W 000°01'611.7
2018-Jul-14 01:30N 50°33' E 000°07'611.4
2018-Jul-14 01:00N 50°34' E 000°16'510.9
2018-Jul-14 00:30N 50°36' E 000°24'510.5
2018-Jul-14 00:00N 50°38' E 000°32'5 9.8
2018-Jul-13 23:30N 50°40' E 000°39'5 9.4
2018-Jul-13 23:00N 50°43' E 000°45'5 9.4
2018-Jul-13 22:30N 50°46' E 000°51'5 9.3
2018-Jul-13 22:00N 50°48' E 000°56'5 9.5
2018-Jul-13 21:30N 50°51' E 001°02'510.3
2018-Jul-13 21:01N 50°55' E 001°08'611.3
2018-Jul-13 20:30N 50°58' E 001°15'612.7
2018-Jul-13 20:00N 51°02' E 001°24'713.8
2018-Jul-13 19:30N 51°06' E 001°32'713.9
2018-Jul-13 19:00N 51°11' E 001°41'713.0
2018-Jul-13 18:31N 51°16' E 001°48'612.1
2018-Jul-13 18:00N 51°20' E 001°54'611.1
2018-Jul-13 17:30N 51°25' E 001°59'510.7
2018-Jul-13 17:00N 51°23' E 002°07'510.9
2018-Jul-13 16:31N 51°21' E 002°15'5 9.9
2018-Jul-13 16:00N 51°22' E 002°23'510.0
2018-Jul-13 15:30N 51°23' E 002°31'5 9.8
2018-Jul-13 14:59N 51°23' E 002°39'4 9.3
2018-Jul-13 14:30N 51°22' E 002°46'1514.7
2018-Jul-13 13:30N 51°22' E 003°09'3 5.2
2018-Jul-13 12:55N 51°20' E 003°13'0 0.7
2018-Jul-13 12:29N 51°20' E 003°13'1 0.9
2018-Jul-13 11:53N 51°19' E 003°13'0 0.0
2018-Jul-13 10:38N 51°19' E 003°13'0 0.0
2018-Jul-13 10:29N 51°19' E 003°13'0 0.0
2018-Jul-13 09:35N 51°19' E 003°13'0 0.0
2018-Jul-13 09:05N 51°19' E 003°13'0 0.0
2018-Jul-13 07:17N 51°19' E 003°13'0 0.0
2018-Jul-13 06:49N 51°19' E 003°13'0 0.0
2018-Jul-13 06:19N 51°19' E 003°13'0 0.0
2018-Jul-13 05:40N 51°19' E 003°13'0 0.0
2018-Jul-13 05:10N 51°19' E 003°13'0 0.0
2018-Jul-13 04:52N 51°19' E 003°13'0 0.0
2018-Jul-13 04:28N 51°19' E 003°13'0 0.0
2018-Jul-13 03:55N 51°19' E 003°13'0 0.1
2018-Jul-13 03:13N 51°19' E 003°13'0 0.3
2018-Jul-13 02:58N 51°19' E 003°13'0 0.0
2018-Jul-13 02:28N 51°19' E 003°13'0 0.0
2018-Jul-13 01:58N 51°19' E 003°13'0 0.0
2018-Jul-13 01:22N 51°19' E 003°13'0 0.0
2018-Jul-13 00:58N 51°19' E 003°13'0 0.0
2018-Jul-12 23:46N 51°19' E 003°13'0 0.0
2018-Jul-12 23:28N 51°19' E 003°13'0 0.0
2018-Jul-12 22:58N 51°19' E 003°13'0 0.0
2018-Jul-12 22:25N 51°19' E 003°13'0 0.0
2018-Jul-12 21:57N 51°19' E 003°13'0 1.0
2018-Jul-12 21:30N 51°19' E 003°13'1 1.7
2018-Jul-12 21:00N 51°18' E 003°14'0 0.0
2018-Jul-12 20:30N 51°18' E 003°14'0 0.0
2018-Jul-12 20:00N 51°18' E 003°14'0 0.0
2018-Jul-12 19:30N 51°18' E 003°14'0 0.0
2018-Jul-12 18:59N 51°18' E 003°14'0 0.0
2018-Jul-12 18:30N 51°18' E 003°14'0 0.0
2018-Jul-12 18:00N 51°18' E 003°14'0 0.0
2018-Jul-12 17:30N 51°18' E 003°14'0 0.0
2018-Jul-12 17:00N 51°18' E 003°14'0 0.0
2018-Jul-12 16:29N 51°18' E 003°14'0 0.0
2018-Jul-12 16:00N 51°18' E 003°14'0 0.0
2018-Jul-12 15:30N 51°18' E 003°14'0 0.0
2018-Jul-12 15:00N 51°18' E 003°14'0 0.0
2018-Jul-12 14:30N 51°18' E 003°14'0 0.0
2018-Jul-12 14:00N 51°18' E 003°14'0 0.0
2018-Jul-12 13:30N 51°18' E 003°14'0 0.0
2018-Jul-12 13:00N 51°18' E 003°14'0 0.0
2018-Jul-12 12:30N 51°18' E 003°14'0 0.0
2018-Jul-12 12:00N 51°18' E 003°14'0 0.0
2018-Jul-12 11:30N 51°18' E 003°14'0 0.0
2018-Jul-12 11:00N 51°18' E 003°14'0 0.0
2018-Jul-12 10:30N 51°18' E 003°14'0 0.0
2018-Jul-12 10:00N 51°18' E 003°14'0 0.0
2018-Jul-12 09:29N 51°18' E 003°14'0 0.0
2018-Jul-12 09:00N 51°18' E 003°14'0 0.0
2018-Jul-12 08:30N 51°18' E 003°14'2 3.4
2018-Jul-12 08:00N 51°20' E 003°13'0 0.0
2018-Jul-12 07:30N 51°20' E 003°13'1 1.2
2018-Jul-12 07:00N 51°21' E 003°13'510.5
2018-Jul-12 06:30N 51°24' E 003°06'714.4
2018-Jul-12 06:00N 51°22' E 002°55'714.1
2018-Jul-12 05:31N 51°22' E 002°44'3 6.9
2018-Jul-12 05:00N 51°22' E 002°38'3 5.4
2018-Jul-12 04:30N 51°22' E 002°34'3 5.5
2018-Jul-12 04:00N 51°22' E 002°29'3 5.7
2018-Jul-12 03:30N 51°21' E 002°25'3 5.9
2018-Jul-12 03:00N 51°20' E 002°21'713.9
2018-Jul-12 02:30N 51°16' E 002°11'816.7
2018-Jul-12 02:00N 51°12' E 001°60'817.0
2018-Jul-12 01:30N 51°07' E 001°48'917.3
2018-Jul-12 01:00N 51°01' E 001°39'917.7
2018-Jul-12 00:30N 50°54' E 001°30'917.9
2018-Jul-12 00:00N 50°46' E 001°24'917.2
2018-Jul-11 23:30N 50°38' E 001°18'917.1
2018-Jul-11 23:00N 50°33' E 001°08'816.8
2018-Jul-11 22:30N 50°30' E 000°55'917.0
2018-Jul-11 22:00N 50°28' E 000°42'1017.0
2018-Jul-11 21:26N 50°25' E 000°28'4618.3
2018-Jul-11 18:54N 50°12' W 000°42'3619.6
2018-Jul-11 17:03N 50°03' W 001°37'319.3
2018-Jul-11 16:53N 50°03' W 001°42'819.1
2018-Jul-11 16:27N 50°01' W 001°54'1018.5
2018-Jul-11 15:56N 49°58' W 002°09'817.8
2018-Jul-11 15:29N 49°56' W 002°21'817.4
2018-Jul-11 15:00N 49°54' W 002°33'816.9
2018-Jul-11 14:30N 49°51' W 002°46'816.2
2018-Jul-11 14:00N 49°48' W 002°57'816.1
2018-Jul-11 13:30N 49°43' W 003°07'815.9
2018-Jul-11 13:00N 49°39' W 003°18'916.3
2018-Jul-11 12:26N 49°35' W 003°31'716.4
2018-Jul-11 12:00N 49°31' W 003°40'816.5
2018-Jul-11 11:30N 49°27' W 003°51'816.3
2018-Jul-11 10:59N 49°22' W 004°02'816.2
2018-Jul-11 10:30N 49°19' W 004°13'815.9
2018-Jul-11 10:00N 49°15' W 004°23'815.7
2018-Jul-11 09:30N 49°11' W 004°34'3815.5
2018-Jul-11 07:04N 48°52' W 005°23'115.5
2018-Jul-11 07:00N 48°51' W 005°24'815.5
2018-Jul-11 06:30N 48°47' W 005°35'1315.3
2018-Jul-11 05:39N 48°36' W 005°45'315.9
2018-Jul-11 05:29N 48°34' W 005°43'816.1
2018-Jul-11 05:00N 48°28' W 005°36'815.6
2018-Jul-11 04:30N 48°21' W 005°30'815.9
2018-Jul-11 03:59N 48°14' W 005°23'1016.4
2018-Jul-11 03:23N 48°06' W 005°15'1615.9
2018-Jul-11 02:21N 47°52' W 005°01'816.7
2018-Jul-11 01:52N 47°48' W 004°52'4016.9
2018-Jul-10 23:30N 47°29' W 003°59'917.1
2018-Jul-10 22:58N 47°23' W 003°49'816.4
2018-Jul-10 22:30N 47°20' W 003°39'917.1
2018-Jul-10 21:59N 47°16' W 003°27'916.7
2018-Jul-10 21:26N 47°11' W 003°15'1016.3
2018-Jul-10 20:50N 47°08' W 003°02'616.6
2018-Jul-10 20:30N 47°07' W 002°53'816.6
2018-Jul-10 20:00N 47°08' W 002°42'916.7
2018-Jul-10 19:30N 47°08' W 002°29'613.0
2018-Jul-10 19:00N 47°09' W 002°20'11 1.0
2018-Jul-10 08:49N 47°17' W 002°10'0 0.0
2018-Jul-10 06:58N 47°17' W 002°10'0 0.0
2018-Jul-10 06:25N 47°17' W 002°10'0 0.0
2018-Jul-10 05:49N 47°17' W 002°10'0 0.0
2018-Jul-10 05:28N 47°17' W 002°10'  

Dump ship's entire track history